Time;durP1;ratioP1;P1;durP2;ratioP2;P2;SDS_P1;SDS_P2;PMS_P1;PMS_P2;Temp;Humidity;BMP_temperature;BMP_pressure;BME280_temperature;BME280_humidity;BME280_pressure;Samples;Min_cycle;Max_cycle;Signal;HPM_P1;HPM_P2
2023/05/13 00:01:15;;;;;;;10.53;9.27;;;16.30;99.90;;;;;;4973770;28;20191;-77
2023/05/13 00:03:41;;;;;;;9.53;8.63;;;16.30;99.90;;;;;;4973274;28;20708;-77
2023/05/13 00:06:07;;;;;;;9.97;9.07;;;16.30;99.90;;;;;;4991160;28;20214;-76
2023/05/13 00:08:33;;;;;;;11.03;9.93;;;16.30;99.90;;;;;;4973385;28;20570;-76
2023/05/13 00:10:59;;;;;;;14.20;9.70;;;16.30;99.90;;;;;;4973800;28;20238;-76
2023/05/13 00:13:25;;;;;;;11.30;10.20;;;16.20;99.90;;;;;;4972893;28;20629;-77
2023/05/13 00:15:51;;;;;;;10.00;9.10;;;16.20;99.90;;;;;;4991120;28;20613;-76
2023/05/13 00:18:17;;;;;;;9.70;8.90;;;16.20;99.90;;;;;;4973710;28;20640;-77
2023/05/13 00:20:43;;;;;;;10.47;9.40;;;16.10;99.90;;;;;;4993534;28;21126;-77
2023/05/13 00:23:10;;;;;;;10.33;9.33;;;16.10;99.90;;;;;;4996366;28;20569;-76
2023/05/13 00:25:36;;;;;;;10.63;9.63;;;16.00;99.90;;;;;;4996314;28;20202;-76
2023/05/13 00:28:02;;;;;;;10.90;9.47;;;16.00;99.90;;;;;;4996744;28;20581;-77
2023/05/13 00:30:28;;;;;;;11.37;9.77;;;16.00;99.90;;;;;;4996019;28;20694;-76
2023/05/13 00:32:54;;;;;;;10.40;9.40;;;15.90;99.90;;;;;;5012665;28;20680;-76
2023/05/13 00:35:19;;;;;;;10.70;9.60;;;15.90;99.90;;;;;;4997820;28;20728;-76
2023/05/13 00:37:45;;;;;;;11.17;10.07;;;15.80;99.90;;;;;;5009790;28;20190;-76
2023/05/13 00:40:19;;;;;;;11.40;10.30;;;15.80;99.90;;;;;;5013248;28;20311;-76
2023/05/13 00:42:45;;;;;;;9.60;8.70;;;15.70;99.90;;;;;;5022210;28;20199;-76
2023/05/13 00:45:11;;;;;;;11.23;10.30;;;15.60;99.90;;;;;;5004759;28;20621;-77
2023/05/13 00:47:40;;;;;;;10.80;9.70;;;15.60;99.90;;;;;;5016015;28;20718;-76
2023/05/13 00:50:08;;;;;;;10.23;9.13;;;15.60;99.90;;;;;;4999331;28;20245;-76
2023/05/13 00:52:36;;;;;;;11.40;10.33;;;15.50;99.90;;;;;;4998809;28;21278;-76
2023/05/13 00:55:03;;;;;;;9.20;8.27;;;15.50;99.90;;;;;;5013820;28;20759;-77
2023/05/13 00:57:29;;;;;;;10.80;9.70;;;15.40;99.90;;;;;;5013312;28;20574;-77
2023/05/13 00:59:55;;;;;;;10.50;9.50;;;15.40;99.90;;;;;;4996115;28;21151;-77
2023/05/13 01:02:33;;;;;;;11.33;10.27;;;15.40;99.90;;;;;;4977980;28;20620;-77
2023/05/13 01:05:20;;;;;;;11.70;10.70;;;15.30;99.90;;;;;;5013444;28;20648;-76
2023/05/13 01:07:49;;;;;;;11.13;10.13;;;15.20;99.90;;;;;;5012005;28;20937;-76
2023/05/13 01:10:18;;;;;;;11.80;10.70;;;15.20;99.90;;;;;;5012423;28;20621;-77
2023/05/13 01:12:45;;;;;;;11.47;10.47;;;15.20;99.90;;;;;;4993402;28;20615;-76
2023/05/13 01:15:19;;;;;;;10.87;9.87;;;15.10;99.90;;;;;;4995176;28;20621;-76
2023/05/13 01:18:08;;;;;;;11.70;10.70;;;15.10;99.90;;;;;;4988380;28;20589;-77
2023/05/13 01:20:36;;;;;;;14.00;11.10;;;15.00;99.90;;;;;;4963476;28;20676;-77
2023/05/13 01:23:02;;;;;;;12.43;11.23;;;15.00;99.90;;;;;;4987057;28;20593;-76
2023/05/13 01:25:28;;;;;;;11.17;10.20;;;14.90;99.90;;;;;;4963380;28;20613;-77
2023/05/13 01:27:54;;;;;;;12.57;11.43;;;14.90;99.90;;;;;;4978920;28;20581;-77
2023/05/13 01:30:22;;;;;;;11.57;10.57;;;14.80;99.90;;;;;;4989580;28;20675;-77
2023/05/13 01:32:49;;;;;;;10.20;9.30;;;14.80;99.90;;;;;;4994138;28;20648;-77
2023/05/13 01:35:16;;;;;;;12.93;11.73;;;14.70;99.90;;;;;;4978801;28;20601;-77
2023/05/13 01:37:44;;;;;;;16.10;9.90;;;14.70;99.90;;;;;;4979048;28;20585;-77
2023/05/13 01:40:12;;;;;;;10.53;9.47;;;14.70;99.90;;;;;;4978628;28;20597;-77
2023/05/13 01:42:38;;;;;;;13.27;12.07;;;14.70;99.90;;;;;;4995002;28;20597;-76
2023/05/13 01:45:06;;;;;;;13.93;12.40;;;14.60;99.90;;;;;;4992299;23;20841;-73
2023/05/13 01:47:32;;;;;;;15.47;13.87;;;14.60;99.90;;;;;;4948417;28;20686;-73
2023/05/13 01:49:58;;;;;;;13.53;12.23;;;14.60;99.90;;;;;;4969110;28;20727;-73
2023/05/13 01:52:24;;;;;;;14.40;12.90;;;14.60;99.90;;;;;;4965628;28;21241;-73
2023/05/13 01:54:52;;;;;;;14.10;12.40;;;14.60;99.90;;;;;;4973856;28;20272;-73
2023/05/13 01:57:19;;;;;;;13.50;12.10;;;14.60;99.90;;;;;;4978812;28;20642;-73
2023/05/13 01:59:45;;;;;;;12.20;11.10;;;14.60;99.90;;;;;;4962746;28;21165;-73
2023/05/13 02:02:11;;;;;;;12.73;11.43;;;14.50;99.90;;;;;;4978555;28;20615;-73
2023/05/13 02:04:37;;;;;;;13.33;12.03;;;14.50;99.90;;;;;;4978816;28;20604;-79
2023/05/13 02:07:03;;;;;;;13.10;11.80;;;14.50;99.90;;;;;;4994848;28;20177;-79
2023/05/13 02:09:30;;;;;;;14.13;12.65;;;14.50;99.90;;;;;;4980522;28;20336;-79
2023/05/13 02:11:57;;;;;;;13.47;12.17;;;14.40;99.90;;;;;;4979177;28;20220;-80
2023/05/13 02:14:23;;;;;;;12.20;11.00;;;14.40;99.90;;;;;;5013579;28;20608;-80
2023/05/13 02:16:48;;;;;;;11.87;10.80;;;14.40;99.90;;;;;;4984074;28;20606;-79
2023/05/13 02:19:14;;;;;;;13.13;11.83;;;14.40;99.90;;;;;;4974433;28;20179;-79
2023/05/13 02:21:42;;;;;;;13.20;11.80;;;14.40;99.90;;;;;;4977396;28;20606;-79
2023/05/13 02:24:08;;;;;;;13.20;11.70;;;14.40;99.90;;;;;;4960042;28;20590;-79
2023/05/13 02:26:34;;;;;;;12.30;11.10;;;14.40;99.90;;;;;;4982199;28;20633;-79
2023/05/13 02:29:00;;;;;;;12.43;11.30;;;14.40;99.90;;;;;;4962107;28;20574;-79
2023/05/13 02:31:28;;;;;;;12.87;11.77;;;14.40;99.90;;;;;;4961715;28;20598;-79
2023/05/13 02:33:54;;;;;;;13.60;12.20;;;14.40;99.90;;;;;;4958962;28;20587;-79
2023/05/13 02:36:20;;;;;;;12.30;11.20;;;14.40;99.90;;;;;;4991313;28;20766;-79
2023/05/13 02:38:46;;;;;;;16.50;12.38;;;14.50;99.90;;;;;;4958654;28;20733;-79
2023/05/13 02:41:14;;;;;;;15.60;14.03;;;14.50;99.90;;;;;;4975004;28;20183;-79
2023/05/13 02:43:41;;;;;;;14.10;12.80;;;14.50;99.90;;;;;;4974107;28;20594;-79
2023/05/13 02:46:07;;;;;;;14.30;13.00;;;14.50;99.90;;;;;;4958693;28;20625;-79
2023/05/13 02:48:33;;;;;;;15.40;14.00;;;14.50;99.90;;;;;;4958421;28;20583;-79
2023/05/13 02:51:00;;;;;;;15.23;13.73;;;14.50;99.90;;;;;;4975037;28;20637;-79
2023/05/13 02:53:27;;;;;;;17.63;13.90;;;14.50;99.90;;;;;;4995320;28;20590;-79
2023/05/13 02:55:58;;;;;;;16.93;15.23;;;14.60;99.90;;;;;;4974984;28;20610;-79
2023/05/13 02:58:25;;;;;;;15.90;14.47;;;14.60;99.90;;;;;;4958242;28;20574;-79
2023/05/13 03:00:52;;;;;;;14.33;13.03;;;14.50;99.90;;;;;;4974980;28;20590;-79
2023/05/13 03:03:18;;;;;;;16.43;14.93;;;14.50;99.90;;;;;;4957845;28;20626;-79
2023/05/13 03:05:44;;;;;;;14.20;12.90;;;14.50;99.90;;;;;;4974629;28;20198;-80
2023/05/13 03:08:09;;;;;;;15.03;13.70;;;14.50;99.90;;;;;;4992005;28;20187;-79
2023/05/13 03:10:36;;;;;;;15.40;13.95;;;14.50;99.90;;;;;;4974355;28;20646;-79
2023/05/13 03:13:02;;;;;;;13.40;12.10;;;14.50;99.90;;;;;;4974234;28;20539;-79
2023/05/13 03:15:28;;;;;;;13.33;12.03;;;14.50;99.90;;;;;;4990629;28;20598;-79
2023/05/13 03:17:54;;;;;;;15.47;14.07;;;14.50;99.90;;;;;;4981189;28;20605;-79
2023/05/13 03:20:20;;;;;;;14.40;13.00;;;14.50;99.90;;;;;;4985646;28;20706;-79
2023/05/13 03:22:46;;;;;;;16.33;14.60;;;14.50;99.90;;;;;;4992370;28;20673;-80
2023/05/13 03:25:12;;;;;;;14.27;12.90;;;14.50;99.90;;;;;;4958019;28;20225;-75
2023/05/13 03:27:45;;;;;;;17.05;13.45;;;14.50;99.90;;;;;;4958240;28;20582;-75
2023/05/13 03:30:12;;;;;;;14.20;12.37;;;14.40;99.90;;;;;;4960538;28;20199;-75
2023/05/13 03:32:47;;;;;;;14.87;12.80;;;14.40;99.90;;;;;;4986517;28;20593;-74
2023/05/13 03:35:13;;;;;;;15.20;13.70;;;14.40;99.90;;;;;;4990321;28;20610;-74
2023/05/13 03:37:39;;;;;;;15.70;14.20;;;14.30;99.90;;;;;;4990410;28;20583;-74
2023/05/13 03:40:07;;;;;;;15.20;14.00;;;14.30;99.90;;;;;;4974282;28;20221;-74
2023/05/13 03:42:34;;;;;;;13.70;12.47;;;14.30;99.90;;;;;;4989766;28;20581;-74
2023/05/13 03:45:02;;;;;;;14.20;13.00;;;14.30;99.90;;;;;;4990165;28;20657;-75
2023/05/13 03:47:28;;;;;;;15.60;14.10;;;14.20;99.90;;;;;;4989925;28;20625;-74
2023/05/13 03:49:59;;;;;;;15.47;13.60;;;14.20;99.90;;;;;;4973999;28;21271;-74
2023/05/13 03:52:24;;;;;;;15.60;14.30;;;14.10;99.90;;;;;;5006030;28;20677;-74
2023/05/13 03:54:50;;;;;;;16.13;14.63;;;14.10;99.90;;;;;;5007426;28;21084;-74
2023/05/13 03:57:16;;;;;;;16.00;14.40;;;14.10;99.90;;;;;;5010161;28;20182;-76
2023/05/13 03:59:41;;;;;;;15.77;14.07;;;14.10;99.90;;;;;;5010411;28;20175;-74
2023/05/13 04:02:07;;;;;;;15.60;14.10;;;14.10;99.90;;;;;;5009901;28;20242;-74
2023/05/13 04:04:33;;;;;;;15.07;13.53;;;14.00;99.90;;;;;;4993797;28;20174;-74
2023/05/13 04:06:58;;;;;;;16.23;14.73;;;14.00;99.90;;;;;;4997371;28;20175;-74
2023/05/13 04:09:24;;;;;;;17.30;15.60;;;14.00;99.90;;;;;;4993774;28;20179;-74
2023/05/13 04:11:50;;;;;;;16.20;14.70;;;14.00;99.90;;;;;;4994932;28;20163;-74
2023/05/13 04:14:16;;;;;;;16.83;14.50;;;14.00;99.90;;;;;;5002369;28;20183;-74
2023/05/13 04:16:42;;;;;;;16.30;14.70;;;14.00;99.90;;;;;;4990721;28;20229;-74
2023/05/13 04:19:08;;;;;;;17.40;15.70;;;14.00;99.90;;;;;;4980500;28;20604;-74
2023/05/13 04:21:34;;;;;;;17.60;16.00;;;14.00;99.90;;;;;;4987525;28;20592;-74
2023/05/13 04:23:59;;;;;;;17.77;16.07;;;14.00;99.90;;;;;;4945156;28;20541;-74
2023/05/13 04:26:25;;;;;;;18.50;16.80;;;14.10;99.90;;;;;;4995357;28;20285;-75
2023/05/13 04:28:51;;;;;;;18.90;16.90;;;14.10;99.90;;;;;;4977281;28;20171;-74
2023/05/13 04:31:17;;;;;;;16.40;14.80;;;14.10;99.90;;;;;;4994763;28;20206;-74
2023/05/13 04:33:44;;;;;;;15.10;13.70;;;14.10;99.90;;;;;;4960738;28;20601;-74
2023/05/13 04:36:10;;;;;;;15.93;14.43;;;14.10;99.90;;;;;;4994670;28;20594;-74
2023/05/13 04:38:37;;;;;;;16.17;14.57;;;14.10;99.90;;;;;;4977172;28;20586;-75
2023/05/13 04:41:04;;;;;;;14.40;13.05;;;14.20;99.90;;;;;;4960822;28;20175;-74
2023/05/13 04:43:35;;;;;;;16.07;14.60;;;14.20;99.90;;;;;;4964762;28;20182;-74
2023/05/13 04:46:01;;;;;;;15.20;13.80;;;14.20;99.90;;;;;;4960691;28;20957;-74
2023/05/13 04:48:27;;;;;;;14.60;13.20;;;14.30;99.90;;;;;;4960998;28;20233;-74
2023/05/13 04:50:53;;;;;;;14.10;12.80;;;14.30;99.90;;;;;;4976487;28;20199;-74
2023/05/13 04:53:19;;;;;;;14.67;13.37;;;14.40;99.90;;;;;;4976903;28;20262;-74
2023/05/13 04:55:49;;;;;;;13.50;12.30;;;14.50;99.90;;;;;;4976520;28;20625;-74
2023/05/13 04:58:15;;;;;;;14.37;12.97;;;14.50;99.90;;;;;;4976758;28;20581;-74
2023/05/13 05:00:41;;;;;;;16.07;14.40;;;14.60;99.90;;;;;;4976390;28;20578;-74
2023/05/13 05:03:07;;;;;;;14.40;12.93;;;14.70;99.90;;;;;;4976703;28;20584;-74
2023/05/13 05:05:33;;;;;;;15.37;13.77;;;14.80;99.90;;;;;;4960303;28;20626;-74
2023/05/13 05:07:59;;;;;;;13.37;12.17;;;14.90;99.90;;;;;;4976622;28;20590;-74
2023/05/13 05:10:25;;;;;;;14.07;12.80;;;14.90;99.90;;;;;;4963067;28;20664;-74
2023/05/13 05:12:57;;;;;;;11.53;10.57;;;15.00;99.90;;;;;;4970718;28;20180;-74
2023/05/13 05:15:23;;;;;;;13.83;12.43;;;15.10;99.90;;;;;;4979947;28;20700;-75
2023/05/13 05:17:53;;;;;;;12.40;11.20;;;15.10;99.90;;;;;;4995684;28;20578;-74
2023/05/13 05:20:19;;;;;;;14.50;12.30;;;15.20;99.90;;;;;;4999618;28;20584;-75
2023/05/13 05:22:49;;;;;;;15.17;13.70;;;15.30;99.90;;;;;;4976603;28;20182;-74
2023/05/13 05:25:15;;;;;;;13.80;12.47;;;15.30;99.90;;;;;;4960441;28;20705;-75
2023/05/13 05:27:41;;;;;;;13.90;12.60;;;15.50;99.90;;;;;;4975972;28;20677;-75
2023/05/13 05:30:09;;;;;;;11.97;10.80;;;15.80;99.90;;;;;;4993944;28;21391;-75
2023/05/13 05:32:35;;;;;;;13.80;12.40;;;16.30;99.90;;;;;;4975509;28;20228;-74
2023/05/13 05:35:03;;;;;;;12.17;11.10;;;16.70;99.90;;;;;;4976246;28;20610;-75
2023/05/13 05:37:30;;;;;;;11.77;10.57;;;17.20;99.90;;;;;;4975875;28;20666;-75
2023/05/13 05:39:56;;;;;;;11.93;10.93;;;17.70;99.90;;;;;;4976269;28;21208;-75
2023/05/13 05:42:22;;;;;;;10.37;9.47;;;18.40;99.90;;;;;;4993070;28;20632;-75
2023/05/13 05:44:48;;;;;;;9.97;8.97;;;19.20;99.90;;;;;;4975532;28;20910;-75
2023/05/13 05:47:13;;;;;;;8.73;8.00;;;20.10;99.90;;;;;;4992335;28;20175;-75
2023/05/13 05:49:39;;;;;;;9.70;8.80;;;20.90;99.90;;;;;;4975356;28;20733;-75
2023/05/13 05:52:05;;;;;;;9.37;8.37;;;21.70;99.90;;;;;;4975526;28;20175;-75
2023/05/13 05:54:31;;;;;;;7.70;7.00;;;22.50;99.90;;;;;;4959461;28;20179;-76
2023/05/13 05:56:57;;;;;;;10.77;8.07;;;23.30;99.90;;;;;;4976984;28;20721;-75
2023/05/13 05:59:23;;;;;;;8.47;7.67;;;24.00;99.90;;;;;;4976390;28;20185;-75
2023/05/13 06:01:49;;;;;;;10.87;6.93;;;24.60;99.90;;;;;;4959408;28;20182;-75
2023/05/13 06:04:16;;;;;;;7.37;6.67;;;25.30;99.90;;;;;;4994515;28;20573;-75
2023/05/13 06:06:42;;;;;;;6.77;6.10;;;26.00;99.90;;;;;;4980176;28;20206;-75
2023/05/13 06:09:08;;;;;;;6.40;5.80;;;26.50;99.90;;;;;;5003414;28;20590;-75
2023/05/13 06:11:33;;;;;;;6.47;5.87;;;27.10;99.90;;;;;;4997202;28;20638;-75
2023/05/13 06:13:59;;;;;;;6.80;6.23;;;27.60;99.90;;;;;;4997276;28;20616;-75
2023/05/13 06:16:26;;;;;;;6.43;5.57;;;28.00;99.90;;;;;;4996405;28;20195;-76
2023/05/13 06:18:51;;;;;;;8.00;7.20;;;28.40;99.90;;;;;;4994788;28;20632;-78
2023/05/13 06:21:17;;;;;;;7.53;6.50;;;28.80;99.90;;;;;;4984470;28;20191;-76
2023/05/13 06:23:45;;;;;;;5.80;5.30;;;29.20;99.90;;;;;;4975828;28;20605;-75
2023/05/13 06:26:12;;;;;;;6.93;5.90;;;29.60;99.90;;;;;;4959136;28;20622;-75
2023/05/13 06:28:37;;;;;;;6.20;5.60;;;30.00;99.90;;;;;;4991625;28;20585;-75
2023/05/13 06:31:03;;;;;;;6.23;5.73;;;30.30;99.90;;;;;;4992421;28;20718;-75
2023/05/13 06:33:29;;;;;;;5.83;5.20;;;30.70;99.90;;;;;;4975360;28;20192;-75
2023/05/13 06:35:55;;;;;;;5.80;5.30;;;31.00;99.90;;;;;;4996082;28;20629;-75
2023/05/13 06:38:22;;;;;;;7.20;6.10;;;31.30;99.90;;;;;;4975103;28;20638;-75
2023/05/13 06:40:52;;;;;;;6.53;5.93;;;31.70;99.90;;;;;;4974956;28;20678;-75
2023/05/13 06:43:24;;;;;;;5.67;5.10;;;32.00;99.90;;;;;;4958093;28;21170;-75
2023/05/13 06:45:56;;;;;;;7.47;5.13;;;32.30;99.90;;;;;;4958909;28;20630;-75
2023/05/13 06:48:22;;;;;;;10.63;4.17;;;32.60;99.90;;;;;;4974513;28;20691;-75
2023/05/13 06:50:48;;;;;;;4.23;3.83;;;32.90;99.90;;;;;;4974876;28;20762;-75
2023/05/13 06:53:14;;;;;;;4.43;4.03;;;32.90;99.90;;;;;;4974287;28;20268;-75
2023/05/13 06:55:42;;;;;;;4.83;4.33;;;33.20;99.90;;;;;;4974794;28;20739;-75
2023/05/13 06:58:09;;;;;;;4.00;3.60;;;33.40;99.90;;;;;;4991747;28;20190;-75
2023/05/13 07:00:37;;;;;;;3.60;3.17;;;33.60;99.90;;;;;;4992253;28;20594;-75
2023/05/13 07:03:04;;;;;;;4.37;3.17;;;33.80;98.40;;;;;;4981646;28;20617;-75
2023/05/13 07:05:31;;;;;;;3.77;3.47;;;34.00;97.40;;;;;;4986083;28;20620;-75
2023/05/13 07:07:57;;;;;;;4.07;3.60;;;34.20;96.80;;;;;;5010122;28;20588;-75
2023/05/13 07:10:22;;;;;;;3.70;3.40;;;34.40;95.40;;;;;;5011470;28;20628;-75
2023/05/13 07:12:48;;;;;;;4.17;3.20;;;34.40;95.20;;;;;;5012561;28;20571;-75
2023/05/13 07:15:15;;;;;;;3.90;3.00;;;34.60;94.00;;;;;;5010958;28;20339;-75
2023/05/13 07:17:41;;;;;;;3.40;2.60;;;34.60;92.70;;;;;;5011518;28;20178;-75
2023/05/13 07:20:08;;;;;;;3.00;2.70;;;34.50;90.90;;;;;;4993469;28;20605;-76
2023/05/13 07:22:34;;;;;;;3.47;2.60;;;34.70;90.80;;;;;;4976383;28;20949;-75
2023/05/13 07:25:00;;;;;;;5.17;3.20;;;34.90;90.10;;;;;;4991440;28;20682;-75
2023/05/13 07:27:26;;;;;;;3.03;2.50;;;35.10;89.80;;;;;;4974449;28;21197;-75
2023/05/13 07:29:52;;;;;;;2.60;2.17;;;35.30;86.70;;;;;;4990418;28;21173;-76
2023/05/13 07:32:17;;;;;;;4.00;2.50;;;35.10;80.30;;;;;;4973983;28;20199;-75
2023/05/13 07:34:43;;;;;;;3.63;2.43;;;34.70;79.90;;;;;;4991306;28;20175;-75
2023/05/13 07:37:09;;;;;;;3.03;2.00;;;34.70;79.90;;;;;;4991747;28;20628;-76
2023/05/13 07:39:35;;;;;;;3.80;2.90;;;34.90;79.00;;;;;;4974241;28;20194;-75
2023/05/13 07:42:01;;;;;;;2.87;1.97;;;35.10;79.20;;;;;;4991049;28;20175;-76
2023/05/13 07:44:26;;;;;;;3.17;2.77;;;35.30;78.20;;;;;;4974206;28;20179;-75
2023/05/13 07:46:52;;;;;;;4.60;2.70;;;35.50;77.50;;;;;;4974807;28;20653;-75
2023/05/13 07:49:19;;;;;;;4.10;3.00;;;35.60;71.70;;;;;;4995095;28;20591;-76
2023/05/13 07:51:46;;;;;;;4.20;2.20;;;35.10;69.20;;;;;;4973859;28;20177;-75
2023/05/13 07:54:12;;;;;;;3.57;2.67;;;34.30;66.40;;;;;;4974595;28;21224;-75
2023/05/13 07:56:37;;;;;;;3.53;3.10;;;33.70;65.70;;;;;;4972912;28;20188;-75
2023/05/13 07:59:03;;;;;;;3.13;2.30;;;33.00;65.40;;;;;;5001615;28;20601;-75
2023/05/13 08:01:29;;;;;;;2.40;1.83;;;32.40;65.00;;;;;;5007758;28;20215;-75
2023/05/13 08:03:55;;;;;;;3.27;2.70;;;31.70;64.70;;;;;;5011187;28;20941;-75
2023/05/13 08:06:21;;;;;;;3.10;2.80;;;31.00;65.10;;;;;;4993643;28;20202;-75
2023/05/13 08:08:46;;;;;;;3.00;2.70;;;30.30;65.50;;;;;;4993607;28;20187;-75
2023/05/13 08:11:12;;;;;;;3.13;2.83;;;29.70;65.90;;;;;;5009951;28;20206;-74
2023/05/13 08:13:38;;;;;;;5.40;3.70;;;29.10;66.30;;;;;;4992770;28;20184;-75
2023/05/13 08:16:05;;;;;;;3.43;2.40;;;28.70;67.10;;;;;;5011016;28;20743;-75
2023/05/13 08:18:31;;;;;;;4.40;2.83;;;28.20;67.90;;;;;;5009455;28;20168;-75
2023/05/13 08:20:57;;;;;;;4.07;3.10;;;27.80;69.20;;;;;;4986153;28;20940;-74
2023/05/13 08:23:24;;;;;;;4.03;2.80;;;27.50;71.90;;;;;;4984386;28;20187;-74
2023/05/13 08:25:50;;;;;;;3.27;2.80;;;27.40;72.10;;;;;;4995707;28;20621;-74
2023/05/13 08:28:16;;;;;;;2.90;2.50;;;27.50;74.10;;;;;;4989776;28;20684;-74
2023/05/13 08:30:43;;;;;;;6.07;2.90;;;27.60;75.10;;;;;;4989952;28;21212;-74
2023/05/13 08:33:12;;;;;;;3.87;2.80;;;27.90;76.40;;;;;;4989283;28;20246;-75
2023/05/13 08:35:38;;;;;;;2.97;2.60;;;28.40;78.50;;;;;;4990011;28;21193;-74
2023/05/13 08:38:04;;;;;;;4.03;2.90;;;29.20;80.20;;;;;;4991246;28;20568;-74
2023/05/13 08:40:31;;;;;;;7.90;4.07;;;29.80;80.80;;;;;;4990968;28;20194;-74
2023/05/13 08:43:02;;;;;;;4.90;2.50;;;30.60;80.40;;;;;;4993050;28;20576;-75
2023/05/13 08:45:29;;;;;;;5.07;3.37;;;31.30;79.30;;;;;;4994255;28;20633;-75
2023/05/13 08:48:00;;;;;;;4.30;3.13;;;32.00;79.60;;;;;;4993425;28;20581;-75
2023/05/13 08:50:30;;;;;;;4.27;3.03;;;32.80;77.80;;;;;;4976636;28;20724;-75
2023/05/13 08:52:58;;;;;;;3.57;2.53;;;33.60;75.90;;;;;;4992714;28;20621;-75
2023/05/13 08:55:24;;;;;;;3.88;3.10;;;34.20;73.60;;;;;;4994744;28;20757;-75
2023/05/13 08:57:50;;;;;;;3.37;2.93;;;34.70;64.40;;;;;;5007806;28;20695;-75
2023/05/13 09:00:16;;;;;;;3.03;2.73;;;35.30;67.90;;;;;;4994221;28;20175;-75
2023/05/13 09:02:42;;;;;;;3.90;2.80;;;35.90;68.10;;;;;;4995833;28;20666;-75
2023/05/13 09:05:09;;;;;;;2.67;2.30;;;36.40;67.10;;;;;;4993914;28;20223;-75
2023/05/13 09:07:36;;;;;;;4.93;2.17;;;36.90;64.70;;;;;;4976831;28;21130;-75
2023/05/13 09:10:03;;;;;;;3.27;2.33;;;37.30;63.60;;;;;;4994215;28;20630;-75
2023/05/13 09:12:42;;;;;;;2.53;2.33;;;37.80;62.90;;;;;;4993503;28;20601;-75
2023/05/13 09:15:10;;;;;;;2.40;2.03;;;38.30;60.10;;;;;;4994049;28;20643;-75
2023/05/13 09:17:44;;;;;;;2.60;2.00;;;38.60;58.70;;;;;;4976140;28;20597;-75
2023/05/13 09:20:14;;;;;;;4.43;2.10;;;38.80;58.00;;;;;;4960561;28;21012;-75
2023/05/13 09:22:50;;;;;;;2.73;2.17;;;38.60;55.70;;;;;;4992900;28;21169;-75
2023/05/13 09:25:17;;;;;;;2.50;1.70;;;38.20;54.10;;;;;;4976411;28;20625;-75
2023/05/13 09:27:46;;;;;;;2.60;2.10;;;37.80;53.90;;;;;;4993423;28;20574;-75
2023/05/13 09:30:12;;;;;;;2.93;2.10;;;37.70;54.50;;;;;;4993980;28;20996;-75
2023/05/13 09:32:39;;;;;;;3.70;1.93;;;37.90;54.90;;;;;;4992948;28;20582;-75
2023/05/13 09:35:23;;;;;;;4.20;2.10;;;38.00;53.40;;;;;;4976062;28;20705;-74
2023/05/13 09:37:50;;;;;;;3.17;1.50;;;38.20;53.50;;;;;;4993444;28;21117;-74
2023/05/13 09:40:16;;;;;;;2.57;1.80;;;38.20;53.30;;;;;;4996102;28;20626;-74
2023/05/13 09:42:44;;;;;;;3.70;2.07;;;38.10;53.10;;;;;;4991901;28;20589;-74
2023/05/13 09:45:12;;;;;;;3.40;2.10;;;38.30;53.20;;;;;;4993505;28;20630;-74
2023/05/13 09:47:39;;;;;;;4.03;2.40;;;38.50;52.80;;;;;;4993090;28;20582;-74
2023/05/13 09:50:06;;;;;;;3.20;2.47;;;38.70;52.70;;;;;;4993416;28;20594;-74
2023/05/13 09:52:33;;;;;;;2.97;2.10;;;38.90;52.90;;;;;;4982464;28;20644;-74
2023/05/13 09:54:59;;;;;;;3.20;2.80;;;39.00;51.40;;;;;;5008357;28;20617;-74
2023/05/13 09:57:28;;;;;;;2.70;2.33;;;39.10;51.10;;;;;;4979092;28;20589;-74
2023/05/13 09:59:58;;;;;;;3.30;2.30;;;39.20;50.60;;;;;;5012405;28;20760;-74
2023/05/13 10:02:25;;;;;;;2.97;2.70;;;39.40;50.50;;;;;;5012426;28;20588;-74
2023/05/13 10:04:55;;;;;;;3.17;2.33;;;39.50;50.40;;;;;;5009207;28;21195;-74
2023/05/13 10:07:25;;;;;;;2.90;2.60;;;39.60;50.70;;;;;;5002112;28;20618;-74
2023/05/13 10:09:53;;;;;;;3.00;2.53;;;39.70;50.40;;;;;;4993741;28;20609;-74
2023/05/13 10:12:21;;;;;;;2.43;2.20;;;39.90;50.50;;;;;;4994010;28;20586;-74
2023/05/13 10:14:50;;;;;;;4.40;2.60;;;40.00;50.10;;;;;;4992505;28;20574;-74
2023/05/13 10:17:18;;;;;;;4.10;3.40;;;40.10;49.50;;;;;;4995839;28;20665;-74
2023/05/13 10:19:44;;;;;;;3.70;3.00;;;40.20;49.70;;;;;;4975226;28;20665;-74
2023/05/13 10:22:12;;;;;;;3.93;2.27;;;40.30;49.60;;;;;;4991896;28;20629;-74
2023/05/13 10:24:38;;;;;;;6.20;2.23;;;40.30;48.30;;;;;;4959076;28;20183;-74
2023/05/13 10:27:06;;;;;;;6.00;2.70;;;40.40;48.70;;;;;;4992462;28;20577;-74
2023/05/13 10:29:36;;;;;;;4.67;2.03;;;40.50;48.60;;;;;;4992686;28;20670;-74
2023/05/13 10:32:02;;;;;;;4.03;2.60;;;40.50;46.80;;;;;;4991970;28;20594;-74
2023/05/13 10:34:32;;;;;;;3.20;2.53;;;40.40;46.40;;;;;;4975425;28;21187;-74
2023/05/13 10:37:32;;;;;;;4.10;3.07;;;40.30;46.30;;;;;;4974767;28;21119;-74
2023/05/13 10:40:14;;;;;;;4.73;3.27;;;40.30;45.70;;;;;;4992299;28;21024;-74
2023/05/13 10:42:42;;;;;;;4.73;3.33;;;39.70;44.10;;;;;;4974298;28;20609;-74
2023/05/13 10:45:09;;;;;;;5.13;3.67;;;38.90;44.50;;;;;;4974914;28;20621;-74
2023/05/13 10:47:36;;;;;;;3.80;3.40;;;38.00;43.90;;;;;;4996057;28;20606;-74
2023/05/13 10:50:06;;;;;;;4.27;3.27;;;37.00;44.00;;;;;;4986535;28;20581;-74
2023/05/13 10:52:45;;;;;;;3.53;3.20;;;36.10;44.00;;;;;;4996573;28;20645;-74
2023/05/13 10:55:17;;;;;;;3.60;3.30;;;35.00;44.40;;;;;;4996725;28;20622;-74
2023/05/13 10:58:09;;;;;;;3.00;2.70;;;34.00;44.70;;;;;;5011715;28;20577;-74
2023/05/13 11:00:36;;;;;;;4.60;2.77;;;33.20;45.60;;;;;;5011739;28;20620;-74
2023/05/13 11:03:17;;;;;;;6.17;4.10;;;32.30;46.20;;;;;;5011091;28;20632;-74
2023/05/13 11:05:46;;;;;;;6.13;3.57;;;31.50;46.90;;;;;;5011721;28;21005;-74
2023/05/13 11:08:35;;;;;;;5.70;4.30;;;30.90;47.70;;;;;;5011209;28;21167;-74
2023/05/13 11:11:01;;;;;;;4.17;3.77;;;30.40;48.60;;;;;;5011788;28;20592;-75
2023/05/13 11:13:37;;;;;;;7.80;4.00;;;30.00;49.30;;;;;;4993053;28;20589;-75
2023/05/13 11:16:05;;;;;;;4.87;4.10;;;29.80;50.60;;;;;;5011445;28;20612;-75
2023/05/13 11:18:33;;;;;;;4.30;3.90;;;29.80;51.80;;;;;;4993446;28;20625;-75
2023/05/13 11:21:04;;;;;;;4.90;4.17;;;29.90;52.30;;;;;;5006826;28;20725;-75
2023/05/13 11:23:50;;;;;;;3.50;3.20;;;30.00;52.20;;;;;;4973522;28;20633;-75
2023/05/13 11:26:17;;;;;;;5.20;3.10;;;29.90;51.70;;;;;;4991683;28;20635;-75
2023/05/13 11:28:55;;;;;;;6.83;3.30;;;29.70;51.20;;;;;;4991408;28;21187;-75
2023/05/13 11:31:21;;;;;;;4.57;3.70;;;29.40;51.00;;;;;;4993633;28;20629;-74
2023/05/13 11:34:08;;;;;;;6.03;4.03;;;28.90;50.60;;;;;;4992029;28;20562;-74
2023/05/13 11:36:38;;;;;;;3.50;1.77;;;28.20;50.10;;;;;;4991515;28;20598;-75
2023/05/13 11:39:10;;;;;;;2.80;1.33;;;26.80;47.70;;;;;;4974251;28;21268;-74
2023/05/13 11:41:40;;;;;;;3.60;1.50;;;25.90;48.20;;;;;;4991014;28;20719;-74
2023/05/13 11:44:06;;;;;;;4.93;1.60;;;25.10;48.80;;;;;;4999221;28;20609;-75
2023/05/13 11:46:32;;;;;;;2.47;1.33;;;24.30;49.70;;;;;;5002884;28;20736;-74
2023/05/13 11:48:58;;;;;;;2.43;1.23;;;23.50;50.30;;;;;;5011273;28;20672;-74
2023/05/13 11:51:27;;;;;;;2.37;1.00;;;22.90;50.50;;;;;;4976501;28;20191;-74
2023/05/13 11:54:03;;;;;;;2.57;1.20;;;22.40;51.20;;;;;;4993536;28;20185;-74
2023/05/13 11:56:29;;;;;;;1.70;1.10;;;21.80;52.20;;;;;;5009238;28;20620;-74
2023/05/13 11:59:10;;;;;;;2.10;1.27;;;21.30;52.80;;;;;;5011075;28;20565;-74
2023/05/13 12:01:36;;;;;;;2.20;1.40;;;20.90;53.50;;;;;;5010414;28;20956;-74
2023/05/13 12:04:02;;;;;;;2.47;1.70;;;20.50;55.50;;;;;;5011039;28;20666;-74
2023/05/13 12:06:28;;;;;;;5.73;1.90;;;20.30;55.80;;;;;;4996296;28;20204;-74
2023/05/13 12:08:54;;;;;;;2.70;1.90;;;20.20;56.30;;;;;;5012050;28;20205;-74
2023/05/13 12:11:19;;;;;;;3.67;2.30;;;20.10;56.30;;;;;;4992569;28;21211;-75
2023/05/13 12:13:47;;;;;;;3.77;1.87;;;20.00;56.50;;;;;;4993368;28;20174;-74
2023/05/13 12:16:13;;;;;;;2.77;1.77;;;20.00;57.70;;;;;;4994979;28;20621;-74
2023/05/13 12:18:38;;;;;;;3.10;1.90;;;20.00;57.30;;;;;;4996787;28;20178;-74
2023/05/13 12:21:14;;;;;;;2.77;1.93;;;20.10;57.60;;;;;;4975722;28;20597;-74
2023/05/13 12:23:39;;;;;;;3.10;1.93;;;20.20;58.60;;;;;;4976904;28;20217;-74
2023/05/13 12:26:07;;;;;;;5.47;1.97;;;20.40;58.60;;;;;;4977591;28;20606;-74
2023/05/13 12:28:32;;;;;;;4.27;2.57;;;20.60;58.90;;;;;;4961151;28;20175;-74
2023/05/13 12:31:03;;;;;;;2.70;1.57;;;20.80;59.20;;;;;;4994785;28;20976;-74
2023/05/13 12:33:31;;;;;;;3.10;1.83;;;21.00;59.70;;;;;;4993953;28;20198;-74
2023/05/13 12:36:24;;;;;;;3.67;1.60;;;21.20;59.70;;;;;;4994831;28;20606;-74
2023/05/13 12:39:01;;;;;;;3.37;2.13;;;21.40;59.60;;;;;;4976872;28;20677;-74
2023/05/13 12:41:35;;;;;;;2.10;1.50;;;21.60;59.60;;;;;;4984696;28;20605;-74